createdAt,value
2022-10-19T00:01:03.051Z,53.90
2022-10-19T00:03:31.708Z,54.20
2022-10-19T00:05:58.759Z,54.20
2022-10-19T00:08:25.660Z,53.90
2022-10-19T00:10:52.468Z,53.90
2022-10-19T00:13:19.263Z,54.00
2022-10-19T00:15:46.039Z,54.60
2022-10-19T00:18:12.789Z,53.70
2022-10-19T00:20:40.960Z,53.90
2022-10-19T00:23:07.761Z,54.00
2022-10-19T00:25:34.536Z,54.10
2022-10-19T00:28:01.499Z,54.20
2022-10-19T00:30:28.480Z,54.20
2022-10-19T00:32:55.222Z,54.30
2022-10-19T00:35:22.152Z,54.00
2022-10-19T00:37:50.316Z,53.80
2022-10-19T00:40:17.283Z,54.30
2022-10-19T00:42:44.060Z,53.90
2022-10-19T00:45:16.483Z,53.80
2022-10-19T00:47:44.340Z,53.70
2022-10-19T00:50:12.976Z,53.70
2022-10-19T00:52:39.910Z,53.60
2022-10-19T00:55:09.897Z,53.50
2022-10-19T00:57:37.139Z,53.80
2022-10-19T01:00:08.283Z,53.50
2022-10-19T01:02:36.074Z,53.80
2022-10-19T01:05:04.066Z,54.10
2022-10-19T01:07:31.153Z,54.40
2022-10-19T01:09:58.362Z,54.60
2022-10-19T01:12:52.031Z,54.80
2022-10-19T01:15:27.183Z,55.00
2022-10-19T01:18:01.406Z,55.20
2022-10-19T01:21:05.375Z,55.40
2022-10-19T01:23:55.932Z,55.10
2022-10-19T01:27:00.399Z,54.80
2022-10-19T01:29:44.143Z,54.60
2022-10-19T01:32:21.643Z,54.70
2022-10-19T01:34:57.571Z,54.90
2022-10-19T01:37:33.025Z,55.00
2022-10-19T01:40:07.575Z,55.10
2022-10-19T01:42:43.603Z,55.00
2022-10-19T01:45:16.094Z,55.20
2022-10-19T01:47:54.243Z,55.40
2022-10-19T01:50:28.780Z,55.10
2022-10-19T01:52:56.865Z,54.90
2022-10-19T01:55:26.312Z,54.50
2022-10-19T01:58:10.132Z,55.30
2022-10-19T02:00:41.030Z,55.10
2022-10-19T02:03:11.664Z,54.60
2022-10-19T02:05:40.476Z,54.70
2022-10-19T02:08:12.622Z,54.60
2022-10-19T02:10:43.296Z,55.00
2022-10-19T02:13:12.082Z,54.60
2022-10-19T02:15:43.107Z,54.50
2022-10-19T02:18:15.330Z,54.60
2022-10-19T02:20:42.115Z,54.40
2022-10-19T02:23:09.452Z,54.10
2022-10-19T02:25:36.764Z,54.10
2022-10-19T02:28:05.404Z,54.00
2022-10-19T02:30:32.542Z,53.90
2022-10-19T02:32:59.348Z,53.80
2022-10-19T02:35:27.870Z,54.00
2022-10-19T02:37:55.899Z,54.10
2022-10-19T02:40:22.979Z,53.60
2022-10-19T02:42:56.090Z,53.70
2022-10-19T02:45:28.073Z,53.90
2022-10-19T02:47:58.104Z,53.80
2022-10-19T02:50:25.119Z,53.90
2022-10-19T02:52:53.305Z,54.10
2022-10-19T02:55:20.259Z,54.00
2022-10-19T02:57:47.052Z,54.00
2022-10-19T03:00:13.973Z,53.80
2022-10-19T03:02:40.763Z,54.50
2022-10-19T03:05:08.839Z,54.50
2022-10-19T03:07:36.690Z,55.30
2022-10-19T03:10:05.847Z,55.00
2022-10-19T03:12:32.732Z,55.30
2022-10-19T03:14:59.509Z,55.40
2022-10-19T03:17:26.338Z,55.60
2022-10-19T03:19:53.122Z,55.90
2022-10-19T03:22:19.914Z,55.60
2022-10-19T03:24:46.712Z,55.90
2022-10-19T03:27:14.807Z,55.90
2022-10-19T03:29:41.721Z,55.80
2022-10-19T03:32:08.488Z,55.90
2022-10-19T03:34:35.277Z,55.70
2022-10-19T03:37:02.080Z,56.10
2022-10-19T03:39:28.944Z,55.90
2022-10-19T03:41:55.703Z,56.20
2022-10-19T03:44:23.840Z,56.70
2022-10-19T03:46:50.750Z,56.70
2022-10-19T03:49:17.536Z,56.40
2022-10-19T03:51:44.346Z,56.70
2022-10-19T03:54:13.972Z,56.90
2022-10-19T03:56:41.244Z,56.70
2022-10-19T03:59:10.824Z,57.00
2022-10-19T04:01:41.351Z,56.80
2022-10-19T04:04:11.665Z,57.20
2022-10-19T04:06:40.716Z,57.20
2022-10-19T04:09:08.874Z,57.10
2022-10-19T04:11:36.116Z,56.70
2022-10-19T04:14:03.120Z,56.50
2022-10-19T04:16:31.440Z,56.50
2022-10-19T04:18:59.958Z,56.60
2022-10-19T04:21:28.512Z,56.50
2022-10-19T04:23:59.341Z,56.50
2022-10-19T04:26:26.568Z,56.40
2022-10-19T04:28:53.470Z,56.40
2022-10-19T04:31:20.401Z,56.30
2022-10-19T04:36:15.313Z,56.40
2022-10-19T04:38:42.148Z,56.70
2022-10-19T04:41:11.087Z,56.90
2022-10-19T04:43:38.432Z,57.20
2022-10-19T04:46:07.145Z,56.90
2022-10-19T04:48:35.048Z,56.70
2022-10-19T04:51:01.900Z,57.20
2022-10-19T04:53:30.676Z,57.00
2022-10-19T04:55:57.455Z,57.10
2022-10-19T04:58:24.453Z,58.10
2022-10-19T05:00:51.746Z,57.20
2022-10-19T05:03:18.586Z,57.20
2022-10-19T05:05:45.358Z,57.00
2022-10-19T05:08:12.117Z,57.30
2022-10-19T05:10:43.117Z,56.70
2022-10-19T05:13:12.393Z,56.70
2022-10-19T05:15:39.128Z,56.90
2022-10-19T05:18:06.079Z,56.50
2022-10-19T05:20:32.896Z,56.70
2022-10-19T05:23:03.277Z,56.70
2022-10-19T05:25:33.342Z,57.00
2022-10-19T05:28:01.528Z,56.90
2022-10-19T05:30:28.412Z,56.50
2022-10-19T05:32:55.216Z,56.40
2022-10-19T05:35:22.662Z,56.20
2022-10-19T05:37:54.082Z,56.30
2022-10-19T05:40:20.847Z,56.40
2022-10-19T05:42:47.667Z,55.90
2022-10-19T05:45:16.057Z,56.20
2022-10-19T05:47:42.866Z,56.00
2022-10-19T05:50:09.846Z,55.80
2022-10-19T05:52:36.643Z,55.80
2022-10-19T05:55:03.931Z,56.60
2022-10-19T05:57:32.529Z,55.70
2022-10-19T05:59:59.508Z,55.70
2022-10-19T06:02:27.664Z,55.50
2022-10-19T06:04:54.499Z,55.60
2022-10-19T06:07:21.249Z,55.50
2022-10-19T06:09:48.047Z,55.30
2022-10-19T06:12:16.273Z,55.10
2022-10-19T06:14:43.391Z,55.00
2022-10-19T06:17:10.226Z,55.00
2022-10-19T06:19:38.402Z,55.10
2022-10-19T06:22:05.225Z,55.40
2022-10-19T06:24:32.052Z,55.80
2022-10-19T06:26:58.936Z,55.20
2022-10-19T06:29:25.753Z,55.00
2022-10-19T06:31:52.499Z,55.20
2022-10-19T06:34:19.287Z,55.00
2022-10-19T06:36:47.489Z,55.00
2022-10-19T06:39:14.227Z,55.20
2022-10-19T06:41:41.006Z,55.10
2022-10-19T06:44:09.088Z,55.20
2022-10-19T06:46:35.849Z,55.30
2022-10-19T06:49:03.116Z,55.20
2022-10-19T06:51:31.415Z,55.60
2022-10-19T06:53:59.615Z,55.60
2022-10-19T06:56:26.817Z,55.30
2022-10-19T06:58:54.166Z,55.30
2022-10-19T07:01:21.604Z,55.30
2022-10-19T07:03:49.794Z,55.30
2022-10-19T07:06:16.534Z,55.10
2022-10-19T07:08:43.886Z,55.10
2022-10-19T07:11:15.472Z,55.20
2022-10-19T07:13:42.286Z,55.10
2022-10-19T07:16:15.996Z,55.00
2022-10-19T07:18:46.947Z,54.80
2022-10-19T07:21:15.604Z,54.70
2022-10-19T07:23:44.037Z,54.60
2022-10-19T07:26:14.751Z,54.60
2022-10-19T07:28:43.820Z,54.50
2022-10-19T07:31:12.535Z,54.30
2022-10-19T07:33:39.418Z,54.30
2022-10-19T07:36:07.880Z,54.50
2022-10-19T07:38:35.504Z,54.00
2022-10-19T07:41:04.449Z,54.50
2022-10-19T07:43:33.024Z,53.80
2022-10-19T07:46:01.453Z,53.90
2022-10-19T07:48:30.621Z,53.90
2022-10-19T07:50:57.604Z,53.90
2022-10-19T07:53:24.751Z,53.40
2022-10-19T07:55:51.512Z,53.10
2022-10-19T07:58:18.305Z,53.10
2022-10-19T08:00:46.574Z,52.60
2022-10-19T08:06:00.799Z,52.40
2022-10-19T08:08:27.781Z,52.40
2022-10-19T08:11:17.605Z,52.40
2022-10-19T08:13:44.861Z,52.50
2022-10-19T08:16:23.905Z,52.40
2022-10-19T08:18:51.518Z,52.70
2022-10-19T08:21:18.341Z,52.30
2022-10-19T08:23:45.144Z,52.00
2022-10-19T08:26:11.924Z,52.00
2022-10-19T08:28:38.780Z,51.70
2022-10-19T08:31:13.153Z,51.70
2022-10-19T08:33:42.104Z,52.00
2022-10-19T08:36:10.470Z,52.20
2022-10-19T08:38:38.371Z,51.70
2022-10-19T08:41:17.239Z,51.50
2022-10-19T08:43:56.087Z,51.20
2022-10-19T08:46:27.783Z,51.50
2022-10-19T08:48:56.448Z,51.60
2022-10-19T08:51:23.305Z,51.50
2022-10-19T08:53:54.318Z,51.60
2022-10-19T08:59:30.310Z,52.10
2022-10-19T09:01:59.714Z,51.20
2022-10-19T09:04:32.638Z,51.20
2022-10-19T09:07:16.944Z,50.60
2022-10-19T09:13:02.948Z,50.20
2022-10-19T09:18:38.628Z,50.60
2022-10-19T09:21:13.045Z,50.80
2022-10-19T09:23:43.463Z,50.60
2022-10-19T09:26:15.225Z,51.20
2022-10-19T09:28:49.203Z,50.30
2022-10-19T09:31:22.234Z,51.10
2022-10-19T09:33:55.893Z,50.80
2022-10-19T09:36:50.016Z,50.50
2022-10-19T09:39:18.909Z,50.80
2022-10-19T09:41:50.260Z,50.90
2022-10-19T09:44:21.225Z,50.40
2022-10-19T09:46:53.962Z,49.70
2022-10-19T09:49:41.200Z,49.80
2022-10-19T09:52:25.738Z,49.20
2022-10-19T09:55:04.136Z,49.00
2022-10-19T09:57:41.813Z,49.00
2022-10-19T10:00:18.681Z,49.30
2022-10-19T10:03:42.026Z,49.00
2022-10-19T10:06:13.342Z,48.50
2022-10-19T10:08:48.365Z,48.70
2022-10-19T10:11:24.105Z,47.80
2022-10-19T10:13:53.344Z,47.60
2022-10-19T10:16:22.894Z,47.60
2022-10-19T10:18:56.814Z,47.70
2022-10-19T10:21:26.702Z,48.30
2022-10-19T10:24:02.944Z,46.90
2022-10-19T10:26:30.085Z,47.50
2022-10-19T10:28:59.281Z,48.10
2022-10-19T10:31:29.725Z,47.30
2022-10-19T10:34:06.479Z,47.50
2022-10-19T10:36:43.889Z,47.40
2022-10-19T10:39:17.294Z,47.50
2022-10-19T10:41:47.015Z,47.60
2022-10-19T10:44:19.714Z,47.00
2022-10-19T10:46:54.053Z,47.40
2022-10-19T10:49:24.384Z,47.60
2022-10-19T10:51:54.951Z,46.70
2022-10-19T10:54:24.783Z,47.70
2022-10-19T10:57:06.656Z,47.50
2022-10-19T10:59:39.424Z,46.70
2022-10-19T11:02:18.164Z,46.80
2022-10-19T11:04:52.339Z,47.90
2022-10-19T11:07:22.786Z,48.70
2022-10-19T11:09:54.510Z,49.40
2022-10-19T11:12:35.177Z,48.60
2022-10-19T11:15:11.298Z,48.10
2022-10-19T11:17:43.899Z,47.90
2022-10-19T11:20:14.999Z,48.30
2022-10-19T11:22:48.970Z,48.70
2022-10-19T11:25:26.427Z,49.00
2022-10-19T11:28:04.468Z,45.90
2022-10-19T11:30:37.833Z,45.20
2022-10-19T11:33:14.974Z,46.80
2022-10-19T11:35:48.485Z,48.10
2022-10-19T11:38:30.391Z,47.80
2022-10-19T11:41:18.321Z,47.90
2022-10-19T11:43:56.630Z,47.90
2022-10-19T11:46:30.620Z,48.30
2022-10-19T11:49:13.295Z,48.60
2022-10-19T11:51:49.963Z,47.70
2022-10-19T11:54:32.480Z,46.70
2022-10-19T11:57:11.155Z,45.70
2022-10-19T11:59:52.866Z,46.30
2022-10-19T12:02:43.889Z,46.10
2022-10-19T12:05:14.702Z,45.50
2022-10-19T12:07:53.932Z,46.10
2022-10-19T12:10:28.709Z,46.40
2022-10-19T12:13:01.573Z,47.00
2022-10-19T12:15:32.057Z,47.40
2022-10-19T12:18:04.245Z,47.20
2022-10-19T12:20:35.938Z,47.40
2022-10-19T12:23:22.987Z,46.90
2022-10-19T12:25:50.818Z,46.90
2022-10-19T12:28:24.466Z,46.80
2022-10-19T12:30:52.486Z,47.10
2022-10-19T12:33:27.419Z,46.90
2022-10-19T12:36:15.251Z,47.00
2022-10-19T12:38:51.005Z,47.10
2022-10-19T12:41:32.700Z,46.90
2022-10-19T12:44:15.393Z,47.50
2022-10-19T12:46:48.351Z,45.10
2022-10-19T12:49:43.819Z,46.40
2022-10-19T12:52:11.886Z,46.90
2022-10-19T12:54:40.526Z,46.00
2022-10-19T12:57:27.313Z,46.80
2022-10-19T13:00:21.731Z,46.40
2022-10-19T13:02:57.248Z,46.90
2022-10-19T13:05:26.740Z,47.40
2022-10-19T13:07:53.767Z,47.00
2022-10-19T13:10:23.682Z,47.10
2022-10-19T13:12:50.554Z,46.70
2022-10-19T13:15:56.973Z,47.00
2022-10-19T13:19:05.514Z,47.10
2022-10-19T13:21:54.941Z,46.60
2022-10-19T13:24:31.309Z,47.00
2022-10-19T13:27:36.021Z,46.90
2022-10-19T13:30:03.405Z,45.90
2022-10-19T13:32:35.055Z,46.80
2022-10-19T13:35:30.605Z,46.40
2022-10-19T13:38:24.412Z,46.30
2022-10-19T13:41:02.176Z,45.70
2022-10-19T13:43:32.420Z,45.70
2022-10-19T13:46:06.019Z,46.50
2022-10-19T13:48:42.342Z,47.10
2022-10-19T13:51:20.179Z,46.50
2022-10-19T13:53:57.140Z,46.70
2022-10-19T13:56:49.187Z,46.00
2022-10-19T13:59:41.121Z,46.80
2022-10-19T14:02:37.179Z,47.10
2022-10-19T14:05:17.017Z,47.00
2022-10-19T14:07:53.055Z,46.60
2022-10-19T14:10:28.271Z,47.20
2022-10-19T14:13:01.585Z,47.70
2022-10-19T14:15:31.006Z,46.80
2022-10-19T14:18:01.271Z,46.70
2022-10-19T14:20:33.116Z,46.40
2022-10-19T14:23:18.033Z,46.70
2022-10-19T14:25:52.141Z,46.40
2022-10-19T14:28:19.043Z,46.70
2022-10-19T14:30:55.469Z,47.20
2022-10-19T14:33:22.628Z,46.10
2022-10-19T14:35:50.583Z,47.30
2022-10-19T14:38:20.200Z,46.70
2022-10-19T14:40:47.311Z,45.80
2022-10-19T14:43:21.367Z,45.90
2022-10-19T14:46:11.133Z,45.90
2022-10-19T14:48:39.658Z,46.40
2022-10-19T14:51:16.932Z,46.20
2022-10-19T14:53:48.528Z,45.60
2022-10-19T14:56:20.881Z,45.90
2022-10-19T14:58:53.210Z,45.60
2022-10-19T15:01:21.049Z,45.60
2022-10-19T15:03:50.897Z,45.50
2022-10-19T15:06:21.438Z,45.50
2022-10-19T15:08:51.895Z,45.90
2022-10-19T15:11:26.207Z,45.90
2022-10-19T15:14:01.833Z,45.70
2022-10-19T15:16:40.639Z,45.90
2022-10-19T15:19:15.799Z,45.30
2022-10-19T15:21:42.603Z,45.30
2022-10-19T15:24:24.104Z,46.00
2022-10-19T15:27:06.622Z,45.50
2022-10-19T15:29:37.709Z,45.80
2022-10-19T15:32:23.685Z,45.90
2022-10-19T15:34:50.913Z,45.90
2022-10-19T15:37:22.943Z,46.50
2022-10-19T15:39:50.800Z,46.20
2022-10-19T15:42:40.297Z,46.40
2022-10-19T15:45:31.086Z,46.00
2022-10-19T15:48:28.583Z,46.20
2022-10-19T15:50:56.913Z,46.30
2022-10-19T15:53:25.390Z,46.50
2022-10-19T15:55:52.262Z,46.60
2022-10-19T15:58:19.059Z,46.40
2022-10-19T16:00:47.144Z,46.70
2022-10-19T16:03:13.866Z,46.70
2022-10-19T16:05:40.649Z,46.70
2022-10-19T16:08:10.115Z,46.90
2022-10-19T16:10:39.137Z,47.00
2022-10-19T16:13:05.927Z,47.10
2022-10-19T16:15:32.802Z,47.10
2022-10-19T16:18:01.060Z,47.30
2022-10-19T16:20:29.300Z,47.20
2022-10-19T16:22:56.624Z,47.50
2022-10-19T16:25:23.457Z,47.20
2022-10-19T16:27:50.473Z,47.30
2022-10-19T16:30:32.657Z,47.30
2022-10-19T16:33:01.976Z,47.50
2022-10-19T16:35:36.716Z,47.50
2022-10-19T16:38:23.739Z,47.60
2022-10-19T16:41:00.856Z,47.40
2022-10-19T16:43:28.323Z,47.60
2022-10-19T16:45:55.121Z,47.50
2022-10-19T16:48:24.224Z,47.70
2022-10-19T16:51:25.039Z,47.80
2022-10-19T16:53:53.252Z,47.80
2022-10-19T16:56:20.460Z,48.10
2022-10-19T16:58:47.220Z,48.20
2022-10-19T17:01:15.777Z,48.30
2022-10-19T17:03:43.932Z,48.10
2022-10-19T17:06:11.320Z,48.20
2022-10-19T17:09:02.668Z,48.20
2022-10-19T17:11:27.086Z,48.30
2022-10-19T17:13:55.800Z,48.40
2022-10-19T17:16:23.560Z,48.50
2022-10-19T17:18:53.971Z,48.60
2022-10-19T17:21:23.085Z,48.60
2022-10-19T17:23:52.007Z,48.60
2022-10-19T17:26:19.216Z,48.70
2022-10-19T17:28:45.927Z,48.70
2022-10-19T17:31:13.808Z,48.90
2022-10-19T17:33:41.309Z,49.00
2022-10-19T17:36:11.718Z,48.90
2022-10-19T17:38:39.132Z,49.70
2022-10-19T17:41:08.011Z,49.10
2022-10-19T17:43:36.458Z,49.00
2022-10-19T17:46:05.383Z,49.10
2022-10-19T17:48:32.892Z,49.00
2022-10-19T17:51:01.171Z,49.10
2022-10-19T17:53:30.941Z,49.30
2022-10-19T17:56:02.213Z,49.10
2022-10-19T17:58:34.127Z,49.20
2022-10-19T18:01:05.575Z,49.20
2022-10-19T18:03:34.821Z,49.20
2022-10-19T18:06:06.914Z,49.40
2022-10-19T18:08:39.545Z,49.50
2022-10-19T18:11:08.520Z,49.60
2022-10-19T18:13:38.539Z,49.50
2022-10-19T18:16:07.654Z,49.50
2022-10-19T18:18:37.403Z,49.50
2022-10-19T18:21:05.619Z,49.40
2022-10-19T18:23:32.506Z,49.50
2022-10-19T18:26:02.225Z,49.50
2022-10-19T18:28:30.708Z,49.60
2022-10-19T18:31:04.596Z,49.70
2022-10-19T18:33:32.546Z,49.80
2022-10-19T18:35:59.590Z,49.90
2022-10-19T18:38:26.433Z,49.70
2022-10-19T18:40:53.288Z,49.90
2022-10-19T18:43:23.143Z,49.70
2022-10-19T18:45:53.396Z,49.80
2022-10-19T18:48:20.336Z,49.70
2022-10-19T18:50:47.218Z,49.80
2022-10-19T18:53:13.961Z,50.00
2022-10-19T18:55:41.212Z,49.80
2022-10-19T18:58:08.281Z,49.80
2022-10-19T19:00:36.585Z,49.90
2022-10-19T19:03:05.791Z,49.80
2022-10-19T19:05:33.002Z,49.90
2022-10-19T19:07:59.781Z,49.90
2022-10-19T19:10:26.700Z,50.00
2022-10-19T19:12:53.557Z,49.90
2022-10-19T19:15:20.600Z,50.00
2022-10-19T19:17:48.720Z,50.20
2022-10-19T19:20:15.591Z,50.00
2022-10-19T19:22:42.347Z,50.00
2022-10-19T19:25:09.475Z,50.00
2022-10-19T19:27:36.280Z,50.10
2022-10-19T19:30:03.663Z,50.00
2022-10-19T19:32:30.560Z,50.00
2022-10-19T19:34:58.737Z,50.00
2022-10-19T19:37:25.626Z,50.00
2022-10-19T19:39:52.398Z,50.00
2022-10-19T19:42:19.288Z,50.00
2022-10-19T19:44:46.052Z,50.10
2022-10-19T19:47:12.920Z,50.00
2022-10-19T19:49:39.652Z,50.00
2022-10-19T19:52:07.766Z,50.00
2022-10-19T19:54:34.547Z,50.10
2022-10-19T19:57:01.330Z,50.00
2022-10-19T19:59:28.074Z,50.00
2022-10-19T20:01:54.868Z,50.20
2022-10-19T20:04:21.607Z,50.00
2022-10-19T20:06:48.308Z,50.00
2022-10-19T20:09:16.406Z,50.00
2022-10-19T20:11:44.142Z,50.00
2022-10-19T20:14:11.235Z,50.00
2022-10-19T20:16:38.118Z,50.00
2022-10-19T20:19:07.419Z,50.00
2022-10-19T20:21:34.383Z,50.00
2022-10-19T20:24:01.439Z,50.10
2022-10-19T20:26:29.889Z,50.00
2022-10-19T20:28:57.396Z,50.00
2022-10-19T20:31:24.818Z,50.20
2022-10-19T20:33:51.547Z,50.00
2022-10-19T20:36:20.718Z,49.90
2022-10-19T20:38:49.038Z,50.00
2022-10-19T20:41:16.471Z,49.90
2022-10-19T20:43:44.841Z,49.90
2022-10-19T20:46:13.823Z,50.00
2022-10-19T20:48:40.743Z,49.90
2022-10-19T20:51:09.152Z,50.00
2022-10-19T20:53:35.900Z,50.10
2022-10-19T20:56:04.439Z,50.10
2022-10-19T20:58:31.321Z,50.00
2022-10-19T21:01:04.698Z,49.90
2022-10-19T21:03:31.403Z,49.90
2022-10-19T21:05:58.108Z,50.00
2022-10-19T21:08:24.869Z,50.00
2022-10-19T21:10:51.576Z,49.90
2022-10-19T21:13:18.310Z,50.00
2022-10-19T21:15:45.057Z,49.90
2022-10-19T21:18:13.290Z,50.00
2022-10-19T21:20:39.989Z,50.00
2022-10-19T21:23:06.686Z,50.00
2022-10-19T21:25:33.420Z,50.00
2022-10-19T21:28:00.138Z,50.00
2022-10-19T21:30:26.880Z,50.10
2022-10-19T21:32:53.619Z,50.00
2022-10-19T21:35:21.703Z,50.00
2022-10-19T21:37:48.423Z,50.10
2022-10-19T21:40:15.363Z,50.10
2022-10-19T21:42:42.083Z,50.00
2022-10-19T21:45:30.375Z,50.00
2022-10-19T21:47:57.361Z,49.90
2022-10-19T21:50:25.490Z,50.00
2022-10-19T21:52:52.265Z,50.00
2022-10-19T21:55:18.952Z,49.90
2022-10-19T21:57:46.065Z,49.90
2022-10-19T22:00:13.720Z,49.90
2022-10-19T22:02:40.400Z,50.00
2022-10-19T22:05:07.866Z,50.00
2022-10-19T22:07:36.261Z,49.90
2022-10-19T22:10:03.923Z,49.90
2022-10-19T22:12:30.799Z,50.00
2022-10-19T22:14:57.522Z,50.00
2022-10-19T22:17:24.247Z,50.00
2022-10-19T22:19:51.039Z,50.00
2022-10-19T22:22:17.801Z,50.00
2022-10-19T22:24:45.919Z,50.70
2022-10-19T22:27:12.684Z,50.00
2022-10-19T22:29:39.546Z,50.00
2022-10-19T22:32:06.434Z,50.10
2022-10-19T22:34:33.165Z,50.10
2022-10-19T22:36:59.871Z,50.00
2022-10-19T22:39:27.962Z,50.00
2022-10-19T22:41:56.257Z,49.90
2022-10-19T22:44:23.097Z,50.00
2022-10-19T22:46:49.788Z,50.00
2022-10-19T22:49:16.572Z,50.00
2022-10-19T22:51:43.273Z,49.90
2022-10-19T22:54:10.044Z,49.90
2022-10-19T22:56:36.757Z,49.90
2022-10-19T22:59:05.854Z,49.80
2022-10-19T23:01:33.028Z,49.80
2022-10-19T23:03:59.810Z,49.80
2022-10-19T23:06:26.869Z,49.80
2022-10-19T23:08:53.802Z,49.80
2022-10-19T23:11:20.652Z,49.70
2022-10-19T23:13:47.641Z,49.70
2022-10-19T23:16:15.825Z,49.70
2022-10-19T23:18:42.563Z,49.60
2022-10-19T23:21:12.829Z,49.70
2022-10-19T23:23:40.012Z,49.70
2022-10-19T23:26:09.588Z,49.70
2022-10-19T23:28:38.108Z,49.60
2022-10-19T23:31:07.070Z,49.60
2022-10-19T23:33:35.945Z,49.70
2022-10-19T23:36:04.742Z,49.80
2022-10-19T23:38:31.509Z,49.90
2022-10-19T23:40:58.231Z,49.80
2022-10-19T23:43:25.027Z,49.90
2022-10-19T23:45:51.831Z,49.90
2022-10-19T23:48:18.556Z,50.00
2022-10-19T23:50:46.653Z,50.10
2022-10-19T23:53:13.420Z,50.20
2022-10-19T23:55:40.281Z,50.10
2022-10-19T23:58:07.164Z,50.10
